sensor_id;sensor_type;location;lat;lon;timestamp;P1;durP1;ratioP1;P2;durP2;ratioP2
20910;SDS011;10615;42.702;23.314;2023-04-01T00:00:11;33.83;;;18.77;;
20910;SDS011;10615;42.702;23.314;2023-04-01T00:01:13;31.63;;;18.08;;
20910;SDS011;10615;42.702;23.314;2023-04-01T00:02:14;28.38;;;17.77;;
20910;SDS011;10615;42.702;23.314;2023-04-01T00:03:15;32.65;;;18.33;;
20910;SDS011;10615;42.702;23.314;2023-04-01T00:04:16;32.58;;;17.85;;
20910;SDS011;10615;42.702;23.314;2023-04-01T00:05:16;34.05;;;17.75;;
20910;SDS011;10615;42.702;23.314;2023-04-01T00:06:17;28.80;;;17.33;;
20910;SDS011;10615;42.702;23.314;2023-04-01T00:07:18;30.63;;;18.30;;
20910;SDS011;10615;42.702;23.314;2023-04-01T00:08:19;26.15;;;17.60;;
20910;SDS011;10615;42.702;23.314;2023-04-01T00:09:20;32.95;;;17.70;;
20910;SDS011;10615;42.702;23.314;2023-04-01T00:10:21;30.65;;;17.45;;
20910;SDS011;10615;42.702;23.314;2023-04-01T00:11:21;27.27;;;16.88;;
20910;SDS011;10615;42.702;23.314;2023-04-01T00:12:22;26.90;;;16.38;;
20910;SDS011;10615;42.702;23.314;2023-04-01T00:13:25;25.17;;;17.02;;
20910;SDS011;10615;42.702;23.314;2023-04-01T00:14:26;26.45;;;16.63;;
20910;SDS011;10615;42.702;23.314;2023-04-01T00:15:26;29.35;;;15.45;;
20910;SDS011;10615;42.702;23.314;2023-04-01T00:16:27;26.02;;;15.85;;
20910;SDS011;10615;42.702;23.314;2023-04-01T00:17:28;24.00;;;15.00;;
20910;SDS011;10615;42.702;23.314;2023-04-01T00:18:28;26.88;;;14.88;;
20910;SDS011;10615;42.702;23.314;2023-04-01T00:19:30;28.38;;;14.77;;
20910;SDS011;10615;42.702;23.314;2023-04-01T00:20:32;25.50;;;15.25;;
20910;SDS011;10615;42.702;23.314;2023-04-01T00:21:33;27.15;;;15.18;;
20910;SDS011;10615;42.702;23.314;2023-04-01T00:22:34;24.80;;;15.18;;
20910;SDS011;10615;42.702;23.314;2023-04-01T00:23:34;25.05;;;15.00;;
20910;SDS011;10615;42.702;23.314;2023-04-01T00:24:35;25.70;;;14.90;;
20910;SDS011;10615;42.702;23.314;2023-04-01T00:25:36;26.33;;;15.15;;
20910;SDS011;10615;42.702;23.314;2023-04-01T00:26:37;24.88;;;15.25;;
20910;SDS011;10615;42.702;23.314;2023-04-01T00:27:37;23.88;;;15.82;;
20910;SDS011;10615;42.702;23.314;2023-04-01T00:28:38;26.40;;;15.27;;
20910;SDS011;10615;42.702;23.314;2023-04-01T00:29:41;24.98;;;14.82;;
20910;SDS011;10615;42.702;23.314;2023-04-01T00:30:43;28.17;;;14.63;;
20910;SDS011;10615;42.702;23.314;2023-04-01T00:31:44;23.67;;;14.68;;
20910;SDS011;10615;42.702;23.314;2023-04-01T00:32:44;21.45;;;13.50;;
20910;SDS011;10615;42.702;23.314;2023-04-01T00:33:45;25.05;;;13.77;;
20910;SDS011;10615;42.702;23.314;2023-04-01T00:34:46;22.40;;;13.95;;
20910;SDS011;10615;42.702;23.314;2023-04-01T00:35:50;19.30;;;12.60;;
20910;SDS011;10615;42.702;23.314;2023-04-01T00:36:51;22.20;;;12.95;;
20910;SDS011;10615;42.702;23.314;2023-04-01T00:37:53;22.83;;;13.50;;
20910;SDS011;10615;42.702;23.314;2023-04-01T00:38:53;22.40;;;12.75;;
20910;SDS011;10615;42.702;23.314;2023-04-01T00:39:54;24.52;;;12.73;;
20910;SDS011;10615;42.702;23.314;2023-04-01T00:40:56;24.15;;;12.88;;
20910;SDS011;10615;42.702;23.314;2023-04-01T00:41:58;20.40;;;12.50;;
20910;SDS011;10615;42.702;23.314;2023-04-01T00:43:00;23.05;;;13.15;;
20910;SDS011;10615;42.702;23.314;2023-04-01T00:44:15;23.55;;;12.82;;
20910;SDS011;10615;42.702;23.314;2023-04-01T00:46:29;21.60;;;12.93;;
20910;SDS011;10615;42.702;23.314;2023-04-01T00:47:30;22.08;;;12.23;;
20910;SDS011;10615;42.702;23.314;2023-04-01T00:48:31;18.98;;;11.30;;
20910;SDS011;10615;42.702;23.314;2023-04-01T00:49:39;18.83;;;12.27;;
20910;SDS011;10615;42.702;23.314;2023-04-01T00:50:43;21.42;;;12.70;;
20910;SDS011;10615;42.702;23.314;2023-04-01T00:51:48;20.63;;;12.05;;
20910;SDS011;10615;42.702;23.314;2023-04-01T00:52:52;20.95;;;11.40;;
20910;SDS011;10615;42.702;23.314;2023-04-01T00:53:53;19.05;;;11.32;;
20910;SDS011;10615;42.702;23.314;2023-04-01T00:54:56;17.75;;;11.48;;
20910;SDS011;10615;42.702;23.314;2023-04-01T00:56:03;19.95;;;11.80;;
20910;SDS011;10615;42.702;23.314;2023-04-01T00:58:08;20.75;;;11.27;;
20910;SDS011;10615;42.702;23.314;2023-04-01T00:59:15;19.70;;;11.95;;
20910;SDS011;10615;42.702;23.314;2023-04-01T01:00:20;18.60;;;10.80;;
20910;SDS011;10615;42.702;23.314;2023-04-01T01:01:21;19.05;;;11.43;;
20910;SDS011;10615;42.702;23.314;2023-04-01T01:02:24;17.88;;;11.10;;
20910;SDS011;10615;42.702;23.314;2023-04-01T01:03:25;20.67;;;10.95;;
20910;SDS011;10615;42.702;23.314;2023-04-01T01:04:30;20.35;;;11.15;;
20910;SDS011;10615;42.702;23.314;2023-04-01T01:05:38;20.88;;;11.82;;
20910;SDS011;10615;42.702;23.314;2023-04-01T01:09:03;20.15;;;11.40;;
20910;SDS011;10615;42.702;23.314;2023-04-01T01:10:57;20.33;;;11.50;;
20910;SDS011;10615;42.702;23.314;2023-04-01T01:12:06;19.65;;;11.65;;
20910;SDS011;10615;42.702;23.314;2023-04-01T01:16:17;25.38;;;11.77;;
20910;SDS011;10615;42.702;23.314;2023-04-01T01:28:01;22.13;;;11.75;;
20910;SDS011;10615;42.702;23.314;2023-04-01T01:30:37;18.65;;;10.65;;
20910;SDS011;10615;42.702;23.314;2023-04-01T01:34:27;19.10;;;11.65;;
20910;SDS011;10615;42.702;23.314;2023-04-01T01:35:34;23.52;;;12.07;;
20910;SDS011;10615;42.702;23.314;2023-04-01T01:36:40;16.88;;;10.55;;
20910;SDS011;10615;42.702;23.314;2023-04-01T01:37:45;16.52;;;9.90;;
20910;SDS011;10615;42.702;23.314;2023-04-01T01:38:48;18.92;;;10.38;;
20910;SDS011;10615;42.702;23.314;2023-04-01T01:39:52;23.10;;;10.40;;
20910;SDS011;10615;42.702;23.314;2023-04-01T01:40:56;17.73;;;10.52;;
20910;SDS011;10615;42.702;23.314;2023-04-01T01:42:01;17.25;;;10.85;;
20910;SDS011;10615;42.702;23.314;2023-04-01T01:43:08;19.05;;;10.32;;
20910;SDS011;10615;42.702;23.314;2023-04-01T01:44:13;16.45;;;10.60;;
20910;SDS011;10615;42.702;23.314;2023-04-01T01:45:16;17.35;;;9.57;;
20910;SDS011;10615;42.702;23.314;2023-04-01T01:46:22;16.15;;;9.95;;
20910;SDS011;10615;42.702;23.314;2023-04-01T01:47:25;17.80;;;10.23;;
20910;SDS011;10615;42.702;23.314;2023-04-01T01:48:26;16.13;;;9.40;;
20910;SDS011;10615;42.702;23.314;2023-04-01T01:49:29;14.35;;;8.98;;
20910;SDS011;10615;42.702;23.314;2023-04-01T01:50:33;17.40;;;8.15;;
20910;SDS011;10615;42.702;23.314;2023-04-01T01:51:35;14.85;;;8.35;;
20910;SDS011;10615;42.702;23.314;2023-04-01T01:52:36;14.68;;;8.43;;
20910;SDS011;10615;42.702;23.314;2023-04-01T01:53:37;15.48;;;8.27;;
20910;SDS011;10615;42.702;23.314;2023-04-01T01:54:48;12.90;;;8.68;;
20910;SDS011;10615;42.702;23.314;2023-04-01T01:55:49;16.15;;;8.18;;
20910;SDS011;10615;42.702;23.314;2023-04-01T01:56:51;15.90;;;7.93;;
20910;SDS011;10615;42.702;23.314;2023-04-01T01:58:08;16.73;;;8.75;;
20910;SDS011;10615;42.702;23.314;2023-04-01T01:59:19;20.02;;;8.77;;
20910;SDS011;10615;42.702;23.314;2023-04-01T02:00:22;15.30;;;8.50;;
20910;SDS011;10615;42.702;23.314;2023-04-01T02:01:24;16.13;;;8.65;;
20910;SDS011;10615;42.702;23.314;2023-04-01T02:02:27;14.05;;;8.77;;
20910;SDS011;10615;42.702;23.314;2023-04-01T02:03:33;17.00;;;9.15;;
20910;SDS011;10615;42.702;23.314;2023-04-01T02:04:36;18.45;;;10.02;;
20910;SDS011;10615;42.702;23.314;2023-04-01T02:05:40;14.80;;;8.85;;
20910;SDS011;10615;42.702;23.314;2023-04-01T02:06:42;18.73;;;9.95;;
20910;SDS011;10615;42.702;23.314;2023-04-01T02:08:02;14.80;;;8.48;;
20910;SDS011;10615;42.702;23.314;2023-04-01T02:09:07;15.45;;;8.68;;
20910;SDS011;10615;42.702;23.314;2023-04-01T02:10:11;14.63;;;9.13;;
20910;SDS011;10615;42.702;23.314;2023-04-01T02:11:12;18.42;;;9.77;;
20910;SDS011;10615;42.702;23.314;2023-04-01T02:12:15;16.58;;;9.05;;
20910;SDS011;10615;42.702;23.314;2023-04-01T02:13:21;17.58;;;8.70;;
20910;SDS011;10615;42.702;23.314;2023-04-01T02:15:37;14.25;;;9.15;;
20910;SDS011;10615;42.702;23.314;2023-04-01T02:18:04;14.88;;;8.13;;
20910;SDS011;10615;42.702;23.314;2023-04-01T02:19:05;15.73;;;8.93;;
20910;SDS011;10615;42.702;23.314;2023-04-01T02:20:14;14.55;;;8.90;;
20910;SDS011;10615;42.702;23.314;2023-04-01T02:21:18;14.95;;;8.68;;
20910;SDS011;10615;42.702;23.314;2023-04-01T02:22:23;13.70;;;8.50;;
20910;SDS011;10615;42.702;23.314;2023-04-01T02:23:27;15.23;;;9.40;;
20910;SDS011;10615;42.702;23.314;2023-04-01T02:24:30;17.65;;;8.73;;
20910;SDS011;10615;42.702;23.314;2023-04-01T02:25:34;16.08;;;8.80;;
20910;SDS011;10615;42.702;23.314;2023-04-01T02:26:36;15.23;;;9.20;;
20910;SDS011;10615;42.702;23.314;2023-04-01T02:27:37;13.40;;;8.30;;
20910;SDS011;10615;42.702;23.314;2023-04-01T02:28:39;14.25;;;9.00;;
20910;SDS011;10615;42.702;23.314;2023-04-01T02:29:41;17.48;;;8.82;;
20910;SDS011;10615;42.702;23.314;2023-04-01T02:30:41;16.27;;;9.25;;
20910;SDS011;10615;42.702;23.314;2023-04-01T02:31:44;15.43;;;9.18;;
20910;SDS011;10615;42.702;23.314;2023-04-01T02:32:45;18.05;;;9.25;;
20910;SDS011;10615;42.702;23.314;2023-04-01T02:33:48;15.82;;;9.07;;
20910;SDS011;10615;42.702;23.314;2023-04-01T02:34:49;14.50;;;8.95;;
20910;SDS011;10615;42.702;23.314;2023-04-01T02:35:50;14.30;;;8.68;;
20910;SDS011;10615;42.702;23.314;2023-04-01T02:36:51;15.10;;;8.82;;
20910;SDS011;10615;42.702;23.314;2023-04-01T02:37:54;15.73;;;8.23;;
20910;SDS011;10615;42.702;23.314;2023-04-01T02:38:55;17.02;;;9.38;;
20910;SDS011;10615;42.702;23.314;2023-04-01T02:40:02;15.45;;;8.23;;
20910;SDS011;10615;42.702;23.314;2023-04-01T02:41:06;16.90;;;9.27;;
20910;SDS011;10615;42.702;23.314;2023-04-01T02:42:07;17.13;;;8.45;;
20910;SDS011;10615;42.702;23.314;2023-04-01T02:43:07;17.70;;;8.75;;
20910;SDS011;10615;42.702;23.314;2023-04-01T02:44:09;16.42;;;8.73;;
20910;SDS011;10615;42.702;23.314;2023-04-01T02:45:10;14.55;;;8.75;;
20910;SDS011;10615;42.702;23.314;2023-04-01T02:46:11;13.90;;;8.82;;
20910;SDS011;10615;42.702;23.314;2023-04-01T02:47:12;14.82;;;9.18;;
20910;SDS011;10615;42.702;23.314;2023-04-01T02:48:13;15.35;;;9.35;;
20910;SDS011;10615;42.702;23.314;2023-04-01T02:49:14;19.27;;;9.00;;
20910;SDS011;10615;42.702;23.314;2023-04-01T02:50:14;14.45;;;8.95;;
20910;SDS011;10615;42.702;23.314;2023-04-01T02:51:15;15.05;;;8.70;;
20910;SDS011;10615;42.702;23.314;2023-04-01T02:52:16;13.38;;;9.05;;
20910;SDS011;10615;42.702;23.314;2023-04-01T02:53:16;18.48;;;9.07;;
20910;SDS011;10615;42.702;23.314;2023-04-01T02:54:17;16.02;;;9.77;;
20910;SDS011;10615;42.702;23.314;2023-04-01T02:55:19;16.30;;;9.63;;
20910;SDS011;10615;42.702;23.314;2023-04-01T02:56:19;14.27;;;9.13;;
20910;SDS011;10615;42.702;23.314;2023-04-01T02:57:21;15.70;;;9.68;;
20910;SDS011;10615;42.702;23.314;2023-04-01T02:58:22;20.33;;;9.95;;
20910;SDS011;10615;42.702;23.314;2023-04-01T02:59:22;16.00;;;9.50;;
20910;SDS011;10615;42.702;23.314;2023-04-01T03:00:23;18.52;;;10.70;;
20910;SDS011;10615;42.702;23.314;2023-04-01T03:01:24;16.88;;;10.52;;
20910;SDS011;10615;42.702;23.314;2023-04-01T03:02:25;17.92;;;10.73;;
20910;SDS011;10615;42.702;23.314;2023-04-01T03:03:26;19.25;;;10.50;;
20910;SDS011;10615;42.702;23.314;2023-04-01T03:04:27;18.02;;;11.23;;
20910;SDS011;10615;42.702;23.314;2023-04-01T03:05:28;19.33;;;10.75;;
20910;SDS011;10615;42.702;23.314;2023-04-01T03:06:28;16.42;;;11.05;;
20910;SDS011;10615;42.702;23.314;2023-04-01T03:07:29;21.17;;;10.80;;
20910;SDS011;10615;42.702;23.314;2023-04-01T03:08:30;21.40;;;11.25;;
20910;SDS011;10615;42.702;23.314;2023-04-01T03:09:31;20.58;;;11.45;;
20910;SDS011;10615;42.702;23.314;2023-04-01T03:10:31;20.85;;;11.57;;
20910;SDS011;10615;42.702;23.314;2023-04-01T03:11:32;17.05;;;11.10;;
20910;SDS011;10615;42.702;23.314;2023-04-01T03:12:33;17.63;;;11.18;;
20910;SDS011;10615;42.702;23.314;2023-04-01T03:13:33;21.35;;;11.60;;
20910;SDS011;10615;42.702;23.314;2023-04-01T03:14:34;19.10;;;11.85;;
20910;SDS011;10615;42.702;23.314;2023-04-01T03:15:35;25.08;;;12.38;;
20910;SDS011;10615;42.702;23.314;2023-04-01T03:16:35;17.80;;;11.45;;
20910;SDS011;10615;42.702;23.314;2023-04-01T03:17:36;19.83;;;11.60;;
20910;SDS011;10615;42.702;23.314;2023-04-01T03:18:38;20.95;;;11.93;;
20910;SDS011;10615;42.702;23.314;2023-04-01T03:19:38;20.88;;;11.85;;
20910;SDS011;10615;42.702;23.314;2023-04-01T03:20:39;22.50;;;12.07;;
20910;SDS011;10615;42.702;23.314;2023-04-01T03:21:40;19.33;;;11.85;;
20910;SDS011;10615;42.702;23.314;2023-04-01T03:22:41;19.40;;;12.27;;
20910;SDS011;10615;42.702;23.314;2023-04-01T03:23:41;22.05;;;12.88;;
20910;SDS011;10615;42.702;23.314;2023-04-01T03:24:42;20.90;;;13.07;;
20910;SDS011;10615;42.702;23.314;2023-04-01T03:25:43;21.15;;;12.38;;
20910;SDS011;10615;42.702;23.314;2023-04-01T03:26:43;25.23;;;13.48;;
20910;SDS011;10615;42.702;23.314;2023-04-01T03:27:44;22.30;;;12.98;;
20910;SDS011;10615;42.702;23.314;2023-04-01T03:28:45;23.83;;;13.25;;
20910;SDS011;10615;42.702;23.314;2023-04-01T03:29:46;19.52;;;12.93;;
20910;SDS011;10615;42.702;23.314;2023-04-01T03:30:46;19.20;;;12.70;;
20910;SDS011;10615;42.702;23.314;2023-04-01T03:31:47;21.92;;;13.13;;
20910;SDS011;10615;42.702;23.314;2023-04-01T03:32:48;21.42;;;13.00;;
20910;SDS011;10615;42.702;23.314;2023-04-01T03:33:48;22.17;;;12.50;;
20910;SDS011;10615;42.702;23.314;2023-04-01T03:34:49;19.67;;;12.88;;
20910;SDS011;10615;42.702;23.314;2023-04-01T03:35:50;21.77;;;12.02;;
20910;SDS011;10615;42.702;23.314;2023-04-01T03:36:53;19.17;;;11.93;;
20910;SDS011;10615;42.702;23.314;2023-04-01T03:37:54;21.45;;;12.57;;
20910;SDS011;10615;42.702;23.314;2023-04-01T03:38:54;23.08;;;12.77;;
20910;SDS011;10615;42.702;23.314;2023-04-01T03:39:55;22.52;;;12.40;;
20910;SDS011;10615;42.702;23.314;2023-04-01T03:40:56;19.77;;;11.70;;
20910;SDS011;10615;42.702;23.314;2023-04-01T03:41:56;20.23;;;12.52;;
20910;SDS011;10615;42.702;23.314;2023-04-01T03:42:57;18.73;;;11.90;;
20910;SDS011;10615;42.702;23.314;2023-04-01T03:43:58;17.55;;;11.90;;
20910;SDS011;10615;42.702;23.314;2023-04-01T03:44:58;20.67;;;11.75;;
20910;SDS011;10615;42.702;23.314;2023-04-01T03:45:59;18.85;;;11.95;;
20910;SDS011;10615;42.702;23.314;2023-04-01T03:47:00;18.13;;;11.93;;
20910;SDS011;10615;42.702;23.314;2023-04-01T03:48:00;19.80;;;12.00;;
20910;SDS011;10615;42.702;23.314;2023-04-01T03:49:01;19.67;;;11.70;;
20910;SDS011;10615;42.702;23.314;2023-04-01T03:50:02;21.90;;;12.35;;
20910;SDS011;10615;42.702;23.314;2023-04-01T03:51:07;18.95;;;11.68;;
20910;SDS011;10615;42.702;23.314;2023-04-01T03:52:09;21.60;;;12.43;;
20910;SDS011;10615;42.702;23.314;2023-04-01T03:53:10;18.38;;;11.90;;
20910;SDS011;10615;42.702;23.314;2023-04-01T03:54:11;22.02;;;13.05;;
20910;SDS011;10615;42.702;23.314;2023-04-01T03:55:12;25.75;;;14.07;;
20910;SDS011;10615;42.702;23.314;2023-04-01T03:56:12;28.75;;;15.77;;
20910;SDS011;10615;42.702;23.314;2023-04-01T03:57:13;25.67;;;14.57;;
20910;SDS011;10615;42.702;23.314;2023-04-01T03:58:14;24.42;;;13.23;;
20910;SDS011;10615;42.702;23.314;2023-04-01T03:59:15;24.80;;;12.45;;
20910;SDS011;10615;42.702;23.314;2023-04-01T04:00:16;20.02;;;12.35;;
20910;SDS011;10615;42.702;23.314;2023-04-01T04:01:20;21.40;;;12.63;;
20910;SDS011;10615;42.702;23.314;2023-04-01T04:02:22;22.85;;;12.30;;
20910;SDS011;10615;42.702;23.314;2023-04-01T04:03:22;21.42;;;12.48;;
20910;SDS011;10615;42.702;23.314;2023-04-01T04:04:23;25.00;;;11.77;;
20910;SDS011;10615;42.702;23.314;2023-04-01T04:05:24;26.83;;;13.13;;
20910;SDS011;10615;42.702;23.314;2023-04-01T04:06:26;19.50;;;11.60;;
20910;SDS011;10615;42.702;23.314;2023-04-01T04:07:27;20.73;;;12.25;;
20910;SDS011;10615;42.702;23.314;2023-04-01T04:08:28;23.50;;;12.02;;
20910;SDS011;10615;42.702;23.314;2023-04-01T04:09:30;19.83;;;11.77;;
20910;SDS011;10615;42.702;23.314;2023-04-01T04:10:31;20.17;;;11.88;;
20910;SDS011;10615;42.702;23.314;2023-04-01T04:11:31;21.23;;;11.73;;
20910;SDS011;10615;42.702;23.314;2023-04-01T04:12:35;18.20;;;12.13;;
20910;SDS011;10615;42.702;23.314;2023-04-01T04:13:36;18.45;;;11.25;;
20910;SDS011;10615;42.702;23.314;2023-04-01T04:14:36;18.10;;;11.27;;
20910;SDS011;10615;42.702;23.314;2023-04-01T04:15:37;19.58;;;11.75;;
20910;SDS011;10615;42.702;23.314;2023-04-01T04:16:38;18.80;;;11.68;;
20910;SDS011;10615;42.702;23.314;2023-04-01T04:17:39;19.25;;;11.95;;
20910;SDS011;10615;42.702;23.314;2023-04-01T04:18:40;21.55;;;11.85;;
20910;SDS011;10615;42.702;23.314;2023-04-01T04:19:40;18.55;;;10.73;;
20910;SDS011;10615;42.702;23.314;2023-04-01T04:20:44;18.67;;;10.38;;
20910;SDS011;10615;42.702;23.314;2023-04-01T04:21:48;20.00;;;11.25;;
20910;SDS011;10615;42.702;23.314;2023-04-01T04:22:49;19.85;;;11.38;;
20910;SDS011;10615;42.702;23.314;2023-04-01T04:23:50;17.77;;;11.48;;
20910;SDS011;10615;42.702;23.314;2023-04-01T04:24:51;16.80;;;9.82;;
20910;SDS011;10615;42.702;23.314;2023-04-01T04:26:25;16.23;;;10.30;;
20910;SDS011;10615;42.702;23.314;2023-04-01T04:27:19;20.90;;;10.68;;
20910;SDS011;10615;42.702;23.314;2023-04-01T04:28:20;15.68;;;9.48;;
20910;SDS011;10615;42.702;23.314;2023-04-01T04:29:20;15.48;;;9.45;;
20910;SDS011;10615;42.702;23.314;2023-04-01T04:30:22;15.95;;;10.68;;
20910;SDS011;10615;42.702;23.314;2023-04-01T04:31:23;20.13;;;9.13;;
20910;SDS011;10615;42.702;23.314;2023-04-01T04:32:25;27.10;;;10.20;;
20910;SDS011;10615;42.702;23.314;2023-04-01T04:33:26;18.48;;;10.00;;
20910;SDS011;10615;42.702;23.314;2023-04-01T04:34:27;16.85;;;9.57;;
20910;SDS011;10615;42.702;23.314;2023-04-01T04:35:27;17.58;;;9.63;;
20910;SDS011;10615;42.702;23.314;2023-04-01T04:36:28;16.67;;;9.07;;
20910;SDS011;10615;42.702;23.314;2023-04-01T04:37:28;18.85;;;10.65;;
20910;SDS011;10615;42.702;23.314;2023-04-01T04:38:29;20.27;;;10.27;;
20910;SDS011;10615;42.702;23.314;2023-04-01T04:39:30;22.45;;;10.88;;
20910;SDS011;10615;42.702;23.314;2023-04-01T04:40:31;19.40;;;10.93;;
20910;SDS011;10615;42.702;23.314;2023-04-01T04:41:32;18.77;;;10.68;;
20910;SDS011;10615;42.702;23.314;2023-04-01T04:42:32;21.48;;;10.57;;
20910;SDS011;10615;42.702;23.314;2023-04-01T04:43:33;17.48;;;10.25;;
20910;SDS011;10615;42.702;23.314;2023-04-01T04:44:33;21.15;;;10.55;;
20910;SDS011;10615;42.702;23.314;2023-04-01T04:45:34;19.15;;;11.10;;
20910;SDS011;10615;42.702;23.314;2023-04-01T04:46:35;15.57;;;10.25;;
20910;SDS011;10615;42.702;23.314;2023-04-01T04:47:37;17.48;;;9.73;;
20910;SDS011;10615;42.702;23.314;2023-04-01T04:48:37;18.00;;;8.57;;
20910;SDS011;10615;42.702;23.314;2023-04-01T04:49:38;19.98;;;9.68;;
20910;SDS011;10615;42.702;23.314;2023-04-01T04:50:39;18.20;;;8.85;;
20910;SDS011;10615;42.702;23.314;2023-04-01T04:51:40;19.60;;;8.75;;
20910;SDS011;10615;42.702;23.314;2023-04-01T04:52:41;15.40;;;7.63;;
20910;SDS011;10615;42.702;23.314;2023-04-01T04:53:42;16.50;;;7.72;;
20910;SDS011;10615;42.702;23.314;2023-04-01T04:54:42;18.30;;;7.88;;
20910;SDS011;10615;42.702;23.314;2023-04-01T04:55:46;20.27;;;8.07;;
20910;SDS011;10615;42.702;23.314;2023-04-01T04:56:50;11.05;;;6.57;;
20910;SDS011;10615;42.702;23.314;2023-04-01T04:57:52;18.40;;;7.50;;
20910;SDS011;10615;42.702;23.314;2023-04-01T04:58:53;16.02;;;8.70;;
20910;SDS011;10615;42.702;23.314;2023-04-01T04:59:53;14.68;;;8.23;;
20910;SDS011;10615;42.702;23.314;2023-04-01T05:00:54;14.77;;;8.02;;
20910;SDS011;10615;42.702;23.314;2023-04-01T05:01:55;15.93;;;8.05;;
20910;SDS011;10615;42.702;23.314;2023-04-01T05:02:55;16.08;;;9.70;;
20910;SDS011;10615;42.702;23.314;2023-04-01T05:03:56;15.02;;;8.85;;
20910;SDS011;10615;42.702;23.314;2023-04-01T05:04:57;19.30;;;9.48;;
20910;SDS011;10615;42.702;23.314;2023-04-01T05:05:58;14.15;;;7.97;;
20910;SDS011;10615;42.702;23.314;2023-04-01T05:06:58;20.33;;;8.02;;
20910;SDS011;10615;42.702;23.314;2023-04-01T05:07:59;17.73;;;8.30;;
20910;SDS011;10615;42.702;23.314;2023-04-01T05:09:00;18.00;;;8.05;;
20910;SDS011;10615;42.702;23.314;2023-04-01T05:10:00;19.75;;;11.38;;
20910;SDS011;10615;42.702;23.314;2023-04-01T05:11:01;17.80;;;10.93;;
20910;SDS011;10615;42.702;23.314;2023-04-01T05:12:02;17.63;;;10.30;;
20910;SDS011;10615;42.702;23.314;2023-04-01T05:13:03;18.55;;;9.95;;
20910;SDS011;10615;42.702;23.314;2023-04-01T05:14:04;18.20;;;10.63;;
20910;SDS011;10615;42.702;23.314;2023-04-01T05:15:05;19.17;;;10.32;;
20910;SDS011;10615;42.702;23.314;2023-04-01T05:16:08;14.35;;;9.55;;
20910;SDS011;10615;42.702;23.314;2023-04-01T05:17:12;21.60;;;9.65;;
20910;SDS011;10615;42.702;23.314;2023-04-01T05:18:13;16.67;;;9.02;;
20910;SDS011;10615;42.702;23.314;2023-04-01T05:19:14;23.25;;;9.43;;
20910;SDS011;10615;42.702;23.314;2023-04-01T05:20:15;17.35;;;10.13;;
20910;SDS011;10615;42.702;23.314;2023-04-01T05:21:16;22.30;;;10.55;;
20910;SDS011;10615;42.702;23.314;2023-04-01T05:22:17;20.20;;;10.05;;
20910;SDS011;10615;42.702;23.314;2023-04-01T05:23:18;17.60;;;9.73;;
20910;SDS011;10615;42.702;23.314;2023-04-01T05:24:21;26.73;;;12.38;;
20910;SDS011;10615;42.702;23.314;2023-04-01T05:25:21;20.50;;;12.60;;
20910;SDS011;10615;42.702;23.314;2023-04-01T05:26:22;27.90;;;13.32;;
20910;SDS011;10615;42.702;23.314;2023-04-01T05:27:23;22.48;;;12.10;;
20910;SDS011;10615;42.702;23.314;2023-04-01T05:28:23;20.15;;;10.93;;
20910;SDS011;10615;42.702;23.314;2023-04-01T05:29:25;23.33;;;10.70;;
20910;SDS011;10615;42.702;23.314;2023-04-01T05:30:26;17.60;;;9.65;;
20910;SDS011;10615;42.702;23.314;2023-04-01T05:31:26;16.48;;;9.13;;
20910;SDS011;10615;42.702;23.314;2023-04-01T05:32:27;13.68;;;7.85;;
20910;SDS011;10615;42.702;23.314;2023-04-01T05:33:28;16.67;;;8.95;;
20910;SDS011;10615;42.702;23.314;2023-04-01T05:34:29;16.58;;;8.98;;
20910;SDS011;10615;42.702;23.314;2023-04-01T05:35:30;21.40;;;9.90;;
20910;SDS011;10615;42.702;23.314;2023-04-01T05:36:30;19.38;;;10.60;;
20910;SDS011;10615;42.702;23.314;2023-04-01T05:37:33;26.23;;;13.13;;
20910;SDS011;10615;42.702;23.314;2023-04-01T05:38:34;20.08;;;11.93;;
20910;SDS011;10615;42.702;23.314;2023-04-01T05:39:36;20.45;;;11.40;;
20910;SDS011;10615;42.702;23.314;2023-04-01T05:40:37;16.73;;;9.80;;
20910;SDS011;10615;42.702;23.314;2023-04-01T05:41:38;21.77;;;10.20;;
20910;SDS011;10615;42.702;23.314;2023-04-01T05:42:38;15.75;;;9.23;;
20910;SDS011;10615;42.702;23.314;2023-04-01T05:43:40;20.70;;;8.40;;
20910;SDS011;10615;42.702;23.314;2023-04-01T05:44:41;15.52;;;8.13;;
20910;SDS011;10615;42.702;23.314;2023-04-01T05:45:42;20.10;;;8.20;;
20910;SDS011;10615;42.702;23.314;2023-04-01T05:46:42;14.40;;;7.65;;
20910;SDS011;10615;42.702;23.314;2023-04-01T05:47:43;14.77;;;6.65;;
20910;SDS011;10615;42.702;23.314;2023-04-01T05:48:44;15.95;;;7.63;;
20910;SDS011;10615;42.702;23.314;2023-04-01T05:49:44;11.23;;;5.90;;
20910;SDS011;10615;42.702;23.314;2023-04-01T05:50:45;10.85;;;6.38;;
20910;SDS011;10615;42.702;23.314;2023-04-01T05:51:46;15.30;;;6.65;;
20910;SDS011;10615;42.702;23.314;2023-04-01T05:52:46;12.85;;;6.90;;
20910;SDS011;10615;42.702;23.314;2023-04-01T05:53:47;12.60;;;6.57;;
20910;SDS011;10615;42.702;23.314;2023-04-01T05:54:48;11.65;;;6.78;;
20910;SDS011;10615;42.702;23.314;2023-04-01T05:55:48;11.75;;;6.45;;
20910;SDS011;10615;42.702;23.314;2023-04-01T05:56:49;10.98;;;6.18;;
20910;SDS011;10615;42.702;23.314;2023-04-01T05:57:50;9.05;;;5.63;;
20910;SDS011;10615;42.702;23.314;2023-04-01T05:58:51;14.95;;;6.53;;
20910;SDS011;10615;42.702;23.314;2023-04-01T05:59:53;11.90;;;6.20;;
20910;SDS011;10615;42.702;23.314;2023-04-01T06:00:59;10.77;;;5.97;;
20910;SDS011;10615;42.702;23.314;2023-04-01T06:02:04;11.48;;;5.95;;
20910;SDS011;10615;42.702;23.314;2023-04-01T06:03:05;11.85;;;6.10;;
20910;SDS011;10615;42.702;23.314;2023-04-01T06:04:06;12.35;;;6.28;;
20910;SDS011;10615;42.702;23.314;2023-04-01T06:05:20;14.07;;;6.07;;
20910;SDS011;10615;42.702;23.314;2023-04-01T06:06:25;10.05;;;5.30;;
20910;SDS011;10615;42.702;23.314;2023-04-01T06:07:27;10.18;;;5.60;;
20910;SDS011;10615;42.702;23.314;2023-04-01T06:08:31;11.90;;;6.15;;
20910;SDS011;10615;42.702;23.314;2023-04-01T06:09:32;10.43;;;5.55;;
20910;SDS011;10615;42.702;23.314;2023-04-01T06:10:51;13.82;;;5.90;;
20910;SDS011;10615;42.702;23.314;2023-04-01T06:17:26;10.15;;;5.57;;
20910;SDS011;10615;42.702;23.314;2023-04-01T06:20:20;11.55;;;5.80;;
20910;SDS011;10615;42.702;23.314;2023-04-01T06:24:16;9.35;;;5.40;;
20910;SDS011;10615;42.702;23.314;2023-04-01T06:25:48;15.67;;;6.67;;
20910;SDS011;10615;42.702;23.314;2023-04-01T06:28:40;13.73;;;6.30;;
20910;SDS011;10615;42.702;23.314;2023-04-01T06:31:05;11.27;;;5.82;;
20910;SDS011;10615;42.702;23.314;2023-04-01T06:40:08;8.27;;;4.77;;
20910;SDS011;10615;42.702;23.314;2023-04-01T06:45:16;8.90;;;5.03;;
20910;SDS011;10615;42.702;23.314;2023-04-01T06:46:46;11.15;;;4.75;;
20910;SDS011;10615;42.702;23.314;2023-04-01T06:50:59;10.73;;;5.32;;
20910;SDS011;10615;42.702;23.314;2023-04-01T06:53:48;9.77;;;4.88;;
20910;SDS011;10615;42.702;23.314;2023-04-01T06:55:13;12.95;;;5.05;;
20910;SDS011;10615;42.702;23.314;2023-04-01T06:56:26;11.73;;;4.93;;
20910;SDS011;10615;42.702;23.314;2023-04-01T06:57:35;11.63;;;4.53;;